Mason Valley, Nevada Weather observations

Data are for observation ending at time listed.
 Day   Time    Ave.   Ave.  Ave.  Vector   Max.   Stn.    Total    Solar   Ave.  
  of    of     Air    Rel.  Wind   Wind    Wind   Baro.  Precip.   Rad.    Soil  
Year   Day     Temp.  Hum.  Speed  Dir.    Gust   Pres.                    Temp. 
2014   (PST)    F      %     mph   deg.    mph     mb.     in.     W/m2     F   
------------------------------------------------------------------------------
 265   13:30   81.5    24    7.5    26     12.1   868.8    0.00     708    76.1
 265   13:40   81.8    23    7.7    14     12.9   868.7    0.00     715    76.5
 265   13:50   81.9    24    6.2    10     10.9   868.6    0.00     695    76.7
 265   14:00   82.1    23    6.3    19     10.6   868.6    0.00     670    77.1
 265   14:10   82.3    23    4.6    21     11.2   868.5    0.00     644    77.5
 265   14:20   82.6    22    7.6    27     12.6   868.4    0.00     619    77.8
 265   14:30   82.8    22    5.1   349     10.4   868.2    0.00     594    78.2
 265   14:40   83.1    22    2.8    25      6.5   868.0    0.00     570    78.6
 265   14:50   83.0    22    5.8    26      9.1   867.9    0.00     542    78.8
 265   15:00   83.6    22    3.0    35      7.9   867.7    0.00     518    79.1
 265   15:10   84.1    21    4.0    30      9.1   867.6    0.00     489    79.6
 265   15:20   84.2    21    4.5    53      9.3   867.6    0.00     457    79.9
 265   15:30   84.0    21    3.9    52      6.9   867.5    0.00     423    80.2
 265   15:40   84.1    21    4.6    40      9.0   867.5    0.00     392    80.5
 265   15:50   83.7    22    3.8    57      9.8   867.4    0.00     359    80.8
 265   16:00   84.0    21    3.2   115      6.7   867.3    0.00     328    81.1
 265   16:10   84.7    21    2.1    85      5.4   867.2    0.00     290    81.4
 265   16:20   84.4    21    3.0    39      5.2   867.2    0.00     259    81.6
 265   16:30   83.4    22    4.1     6      7.6   867.2    0.00     170    81.9
 265   16:40   82.8    22    3.5    23      6.2   867.3    0.00     134    82.1
 265   16:50   82.3    23    4.8    24      6.4   867.2    0.00     101    82.5
 265   17:00   81.8    23    2.7    24      4.9   867.3    0.00      40    82.7
 265   17:10   80.7    24    2.8    10      3.7   867.3    0.00      36    83.0
 265   17:20   79.6    26    1.6     8      2.9   867.4    0.00      17    83.2
 265   17:30   79.0    26    1.6     8      2.0   867.5    0.00       8    83.4
 265   17:40   78.6    26    1.5     8      1.9   867.5    0.00      10    83.4
 265   17:50   77.5    26    0.4     8      1.7   867.5    0.00       6    83.4
 265   18:00   74.5    28    2.9   162      3.6   867.5    0.00       2    83.4
 265   18:10   72.5    30    1.9   168      3.3   867.5    0.00       0    83.6
 265   18:20   72.5    31    0.2   170      1.5   867.6    0.00       0    83.6
 265   18:30   72.7    30    1.4   272      4.2   867.6    0.00       0    83.5
 265   18:40   73.3    30    2.9   310      6.9   867.8    0.00       0    83.3
 265   18:50   73.4    29    1.5   334      3.7   867.9    0.00       0    83.0
 265   19:00   71.4    30    2.8    48      4.3   868.1    0.00       0    83.0
 265   19:10   71.3    31    2.8   342      7.1   868.2    0.00       0    83.0
 265   19:20   73.2    31    2.7   342      6.2   868.3    0.00       0    82.8
 265   19:30   73.9    31    4.8   344      9.2   868.4    0.00       0    82.6
 265   19:40   73.0    32    6.3    10      9.9   868.5    0.00       0    82.3
 265   19:50   71.5    34    4.6   348      5.3   868.5    0.00       0    82.2
 265   20:00   70.3    37    4.0   316      6.1   868.6    0.00       0    82.2
 265   20:10   70.9    36    4.5   293      6.4   868.7    0.00       0    82.2
 265   20:20   71.1    35    4.2   314      8.5   868.7    0.00       0    82.1
 265   20:30   71.1    35    4.5   315      8.4   868.7    0.00       0    82.0
 265   20:40   70.7    36    3.9   322      6.0   868.8    0.00       0    81.8
 265   20:50   70.2    36    3.1   311      4.8   868.8    0.00       0    81.7
 265   21:00   70.4    36    3.5   301      5.6   868.7    0.00       0    81.6
 265   21:10   70.6    36    4.3   310      6.5   868.6    0.00       0    81.5
 265   21:20   70.5    36    3.3   320      5.7   868.6    0.00       0    81.4
 265   21:30   69.2    37    3.0   328      4.2   868.6    0.00       0    81.3
 265   21:40   68.4    37    2.1   341      4.3   868.7    0.00       0    81.3
 265   21:50   66.0    39    2.1   216      4.6   868.7    0.00       0    81.3
 265   22:00   64.4    42    2.6   219      3.8   868.7    0.00       0    81.4
 265   22:10   66.0    40    1.6   225      3.5   868.7    0.00       0    81.4
 265   22:20   63.3    41    2.5   144      4.6   868.7    0.00       0    81.3
 265   22:30   61.8    47    3.6   175      5.0   868.7    0.00       0    81.2
 265   22:40   61.9    48    3.0   182      4.1   868.7    0.00       0    81.0
 265   22:50   61.4    49    3.8   187      4.7   868.7    0.00       0    80.8
 265   23:00   61.2    48    3.6   175      4.6   868.7    0.00       0    80.6
 265   23:10   60.8    51    3.6   188      4.6   868.7    0.00       0    80.5
 265   23:20   60.8    50    2.4   183      3.4   868.8    0.00       0    80.3
 265   23:30   60.6    51    2.6   197      3.5   868.8    0.00       0    80.1
 265   23:40   60.7    51    3.0   208      4.1   868.7    0.00       0    80.0
 265   23:50   59.7    49    0.6   210      1.9   868.7    0.00       0    79.8
 266    0:00   58.8    50    0.2   210      1.3   868.7    0.00       0    79.7
 266    0:10   58.4    50    0.2   167      3.0   868.8    0.00       0    79.7
 266    0:20   57.4    50    2.6   151      4.3   868.8    0.00       0    79.5
 266    0:30   55.1    51    3.8   141      4.6   868.7    0.00       0    79.4
 266    0:40   54.7    57    2.2   175      3.3   868.7    0.00       0    79.3
 266    0:50   55.6    57    0.5   238      1.6   868.7    0.00       0    79.1
 266    1:00   55.9    54    0.0   239      0.8   868.7    0.00       0    78.9
 266    1:10   56.3    52    0.0   227      1.2   868.7    0.00       0    78.7
 266    1:20   55.6    52    2.9   151      4.6   868.7    0.00       0    78.5
 266    1:30   55.4    52    1.1   143      3.6   868.7    0.00       0    78.3
 266    1:40   54.4    52    0.1   140      2.2   868.8    0.00       0    78.1
 266    1:50   54.0    52    1.9   160      3.1   868.7    0.00       0    78.0
 266    2:00   53.3    61    2.5   162      3.5   868.6    0.00       0    77.8
 266    2:10   53.8    62    3.2   159      4.7   868.7    0.00       0    77.7
 266    2:20   55.1    58    2.1   157      4.7   868.7    0.00       0    77.4
 266    2:30   55.2    57    1.6   247      3.9   868.7    0.00       0    77.2
 266    2:40   55.0    56    1.7   263      3.8   868.7    0.00       0    77.1
 266    2:50   54.9    58    0.6   177      3.4   868.7    0.00       0    76.9
 266    3:00   54.6    59    1.0   177      2.2   868.7    0.00       0    76.7
 266    3:10   54.9    58    1.2   176      3.9   868.7    0.00       0    76.6
 266    3:20   54.0    57    0.1   162      1.8   868.8    0.00       0    76.4
 266    3:30   54.9    55    2.4   132      4.3   868.7    0.00       0    76.4
 266    3:40   52.8    59    2.3   195      4.2   868.7    0.00       0    76.2
 266    3:50   53.4    60    1.7   233      3.8   868.8    0.00       0    76.2
 266    4:00   51.7    59    2.3   151      4.6   868.7    0.00       0    76.0
 266    4:10   50.4    63    2.8   133      4.3   868.8    0.00       0    76.0
 266    4:20   51.3    62    0.4   130      3.4   869.0    0.00       0    75.8
 266    4:30   51.4    64    0.0   129      0.8   869.2    0.00       0    75.7
 266    4:40   52.1    62    1.1   270      4.9   869.2    0.00       0    75.5
 266    4:50   52.1    62    1.7   246      3.0   869.2    0.00       0    75.3
 266    5:00   52.9    60    0.5   254      3.1   869.2    0.00       0    75.1
 266    5:10   51.1    58    0.2   244      1.7   869.3    0.00       0    75.0
 266    5:20   50.1    65    1.9   237      3.8   869.3    0.00       0    74.9
 266    5:30   49.7    63    3.4   169      5.3   869.3    0.00       0    74.8
 266    5:40   48.2    66    4.3   173      5.6   869.4    0.00       2    74.7
 266    5:50   49.1    68    3.0   197      4.2   869.6    0.00       6    74.4
 266    6:00   51.7    64    1.0   200      2.4   869.7    0.00      17    74.2
 266    6:10   49.5    56    2.5    20      4.0   869.9    0.00      35    74.1
 266    6:20   48.6    61    0.6   348      4.1   869.9    0.00      52    73.9
 266    6:30   50.0    59    0.5    52      1.9   869.9    0.00      65    73.7
 266    6:40   51.7    60    0.0     0      0.0   870.0    0.00      83    73.5
 266    6:50   53.1    56    0.3    70      1.7   870.0    0.00     113    73.2
 266    7:00   56.0    52    0.0     0      0.0   870.1    0.00     164    72.8
 266    7:10   58.5    50    1.2   178      3.0   870.1    0.00     213    72.4
 266    7:20   60.6    50    0.5   164      1.9   870.2    0.00     225    72.0
 266    7:30   61.4    49    0.2   127      2.3   870.2    0.00     231    71.6
 266    7:40   62.9    47    1.0   140      2.4   870.2    0.00     225    71.3
 266    7:50   64.2    44    2.8   146      4.0   870.2    0.00     245    71.2
 266    8:00   65.3    43    2.0   114      3.6   870.2    0.00     339    71.1
 266    8:10   67.0    41    1.5    92      3.3   870.2    0.00     392    70.9
 266    8:20   68.7    39    2.3    70      4.9   870.2    0.00     427    70.7
 266    8:30   69.5    38    2.0   110      4.9   870.2    0.00     459    70.5
 266    8:40   70.9    36    1.5   101      4.2   870.2    0.00     484    70.4
 266    8:50   72.1    34    1.4    55      3.6   870.2    0.00     515    70.4
 266    9:00   74.7    31    1.8    69      5.2   870.2    0.00     549    70.4
 266    9:10   73.9    32    2.7    81      5.2   870.1    0.00     578    70.5
 266    9:20   74.8    30    2.3    57      4.7   870.0    0.00     618    70.8
 266    9:30   75.2    29    2.7    75      5.8   870.0    0.00     649    71.0
 266    9:40   76.2    28    2.8   101      5.3   869.9    0.00     680    71.2
 266    9:50   78.1    26    2.6    68      6.2   869.8    0.00     605    71.3
 266   10:00   78.1    26    1.9    50      6.3   869.6    0.00     644    71.5
 266   10:10   78.1    28    3.6    64      7.3   869.6    0.00     773    71.7
 266   10:20   78.1    28    3.8     5     10.2   869.4    0.00     791    71.9
 266   10:30   78.7    26    3.6    74      9.2   869.3    0.00     717    72.1
 266   10:40   79.6    26    4.1    25      8.7   869.2    0.00     833    72.3
 266   10:50   79.4    26    5.6    33      9.4   869.1    0.00     798    72.6
 266   11:00   79.9    25    6.1    25      9.7   869.0    0.00     815    72.8
 266   11:10   80.1    24    4.3     6      9.4   868.9    0.00     816    73.2
 266   11:20   80.3    24    6.2    14      9.3   868.8    0.00     815    73.5
 266   11:30   81.4    22    5.7     8     10.3   868.7    0.00     811    73.7
 266   11:40   82.2    21    6.4    17     10.2   868.5    0.00     805    74.0
 266   11:50   83.4    19    4.0    43      8.6   868.5    0.00     814    74.2
 266   12:00   84.0    17    5.6    83     10.1   868.3    0.00     814    74.3
 266   12:10   83.8    18    4.3   106      8.3   868.2    0.00     830    74.5
 266   12:20   84.7    17    2.5    38      6.3   868.1    0.00     846    74.7
 266   12:30   85.5    16    4.5   112      9.0   867.9    0.00     770    74.8
 266   12:40   85.0    15    4.3   108      9.6   867.8    0.00     645    75.1
 266   12:50   84.3    15    5.8   110      9.1   867.6    0.00     386    75.6
 266   13:00   85.5    14    3.3    83      9.2   867.5    0.00     706    76.1
 266   13:10   87.2    14    4.0   147      8.2   867.4    0.00     787    76.4
 266   13:20   88.1    13    3.8   109      7.6   867.3    0.00     766    76.5

Return to Mason Valley, Nevada graphs page.


Western Regional Climate Center,wrcc@dri.edu